Time;durP1;ratioP1;P1;durP2;ratioP2;P2;SDS_P1;SDS_P2;PMS_P1;PMS_P2;Temp;Humidity;BMP_temperature;BMP_pressure;BME280_temperature;BME280_humidity;BME280_pressure;Samples;Min_cycle;Max_cycle;Signal;HPM_P1;HPM_P2
2022/12/31 00:02:00;;;;;;;2.13;2.03;;;11.10;99.90;;;11.95;100.00;97710.16;5186440;28;20938;-66
2022/12/31 00:04:33;;;;;;;1.95;1.55;;;11.40;99.90;;;12.11;100.00;97702.44;5185856;28;20625;-66
2022/12/31 00:07:06;;;;;;;1.80;1.70;;;11.60;99.90;;;12.21;100.00;97708.00;5187156;28;20309;-65
2022/12/31 00:09:41;;;;;;;1.60;1.60;;;11.70;99.90;;;12.30;100.00;97718.69;5186621;28;20714;-65
2022/12/31 00:12:14;;;;;;;1.90;1.73;;;11.90;99.90;;;12.47;100.00;97707.53;5186793;28;20658;-65
2022/12/31 00:14:47;;;;;;;1.60;1.50;;;12.20;99.90;;;12.44;100.00;97711.66;5184058;28;20930;-65
2022/12/31 00:17:20;;;;;;;1.63;1.52;;;12.10;99.90;;;12.62;100.00;97718.53;5185456;28;20335;-66
2022/12/31 00:19:53;;;;;;;1.33;1.33;;;12.20;99.90;;;12.64;100.00;97710.88;5182701;28;20940;-66
2022/12/31 00:22:26;;;;;;;1.70;1.60;;;12.20;99.90;;;12.67;100.00;97725.53;5184778;28;20350;-64
2022/12/31 00:25:01;;;;;;;1.30;1.30;;;12.20;99.90;;;12.74;100.00;97722.47;5186719;28;20223;-65
2022/12/31 00:27:34;;;;;;;1.60;1.60;;;12.30;99.90;;;12.75;100.00;97719.97;5184650;28;20201;-66
2022/12/31 00:30:09;;;;;;;1.60;1.58;;;12.30;99.90;;;12.83;100.00;97722.88;5186593;28;20711;-65
2022/12/31 00:32:43;;;;;;;1.60;1.50;;;12.40;99.90;;;12.71;100.00;97720.63;5183803;28;20206;-66
2022/12/31 00:35:16;;;;;;;1.48;1.48;;;12.30;99.90;;;12.89;100.00;97725.72;5185396;28;20210;-66
2022/12/31 00:37:52;;;;;;;1.30;1.30;;;12.50;99.90;;;13.02;100.00;97735.75;5185422;28;20708;-64
2022/12/31 00:40:28;;;;;;;1.20;1.20;;;12.60;99.90;;;13.06;100.00;97726.50;5186549;28;20222;-66
2022/12/31 00:43:01;;;;;;;1.58;1.58;;;12.60;99.90;;;13.22;100.00;97721.25;5184918;28;20201;-64
2022/12/31 00:45:34;;;;;;;1.38;1.38;;;12.80;99.90;;;13.21;100.00;97726.31;5184459;28;20691;-66
2022/12/31 00:48:07;;;;;;;1.80;1.70;;;12.80;99.90;;;13.25;100.00;97728.22;5183286;28;20301;-65
2022/12/31 00:50:40;;;;;;;1.58;1.48;;;12.80;99.90;;;13.25;100.00;97728.22;5183581;28;20221;-66
2022/12/31 00:53:14;;;;;;;1.50;1.40;;;12.80;99.90;;;13.34;100.00;97744.03;5182845;28;20737;-66
2022/12/31 00:55:48;;;;;;;1.40;1.40;;;12.90;99.90;;;13.42;100.00;97742.69;5185928;28;20287;-64
2022/12/31 00:58:21;;;;;;;1.45;1.30;;;13.00;99.90;;;13.41;100.00;97748.63;5185824;28;20363;-64
2022/12/31 01:00:54;;;;;;;1.70;1.60;;;13.00;99.90;;;13.40;100.00;97746.00;5185660;28;20233;-65
2022/12/31 01:03:27;;;;;;;1.38;1.38;;;13.00;99.90;;;13.43;100.00;97752.16;5184850;28;20210;-66
2022/12/31 01:06:01;;;;;;;1.42;1.40;;;13.00;99.90;;;13.44;100.00;97761.59;5184174;28;20211;-66
2022/12/31 01:08:34;;;;;;;1.42;1.35;;;13.00;99.90;;;13.41;100.00;97756.31;5185007;28;21620;-66
2022/12/31 01:11:21;;;;;;;1.60;1.50;;;12.90;99.90;;;13.47;100.00;97758.28;5187703;28;20682;-65
2022/12/31 01:13:58;;;;;;;1.60;1.50;;;13.00;99.90;;;13.56;100.00;97752.69;5187024;28;20658;-65
2022/12/31 01:16:33;;;;;;;1.63;1.55;;;13.10;99.90;;;13.61;100.00;97764.03;5183558;28;20202;-63
2022/12/31 01:19:09;;;;;;;1.67;1.60;;;13.10;99.90;;;13.57;100.00;97760.47;5183167;28;20227;-64
2022/12/31 01:21:44;;;;;;;1.55;1.45;;;13.20;99.90;;;13.65;100.00;97765.91;5185970;28;20450;-66
2022/12/31 01:24:18;;;;;;;1.73;1.63;;;13.20;99.90;;;13.51;100.00;97765.34;5185440;28;20215;-67
2022/12/31 01:26:56;;;;;;;1.73;1.63;;;13.00;99.90;;;13.52;100.00;97764.50;5184619;28;20225;-65
2022/12/31 01:29:29;;;;;;;1.33;1.33;;;13.00;99.90;;;13.51;100.00;97773.91;5184816;28;20226;-65
2022/12/31 01:32:02;;;;;;;1.95;1.85;;;13.00;99.90;;;13.50;100.00;97789.22;5183365;28;20216;-66
2022/12/31 01:34:36;;;;;;;1.70;1.40;;;13.00;99.90;;;13.63;100.00;97798.38;5184109;28;20265;-66
2022/12/31 01:37:09;;;;;;;1.80;1.70;;;13.00;99.90;;;13.57;100.00;97787.84;5184379;28;20206;-66
2022/12/31 01:39:42;;;;;;;1.65;1.55;;;12.90;99.90;;;13.63;100.00;97806.06;5186996;28;20230;-66
2022/12/31 01:42:16;;;;;;;1.55;1.40;;;12.90;99.90;;;13.53;100.00;97820.19;5184169;28;20287;-66
2022/12/31 01:44:53;;;;;;;1.98;1.88;;;12.90;99.90;;;13.48;100.00;97806.28;5183018;28;20214;-66
2022/12/31 01:47:37;;;;;;;1.50;1.50;;;12.80;99.90;;;13.57;100.00;97818.66;5184909;28;20291;-66
2022/12/31 01:50:16;;;;;;;1.67;1.58;;;12.80;99.90;;;13.47;100.00;97807.94;5182711;28;20808;-66
2022/12/31 01:52:54;;;;;;;1.45;1.45;;;12.80;99.90;;;13.59;100.00;97819.56;5183101;28;20264;-65
2022/12/31 01:55:33;;;;;;;1.50;1.50;;;12.80;99.90;;;13.61;100.00;97815.41;5184313;28;20201;-65
2022/12/31 01:58:12;;;;;;;1.60;1.50;;;13.00;99.90;;;13.72;100.00;97819.31;5184858;28;20233;-66
2022/12/31 02:00:46;;;;;;;1.30;1.27;;;13.10;99.90;;;13.72;100.00;97817.63;5184627;28;21119;-66
2022/12/31 02:03:21;;;;;;;1.63;1.52;;;13.10;99.90;;;13.55;100.00;97826.28;5184886;28;20212;-66
2022/12/31 02:06:01;;;;;;;2.15;1.80;;;12.90;99.90;;;13.42;100.00;97819.72;5185539;28;20205;-65
2022/12/31 02:08:35;;;;;;;1.65;1.55;;;12.80;99.90;;;13.43;100.00;97825.72;5187326;28;20246;-63
2022/12/31 02:11:27;;;;;;;1.67;1.67;;;12.70;99.90;;;13.49;100.00;97826.00;5190922;28;20376;-65
2022/12/31 02:14:07;;;;;;;1.70;1.60;;;12.80;99.90;;;13.61;100.00;97833.38;5188232;28;20544;-66
2022/12/31 02:16:51;;;;;;;1.65;1.58;;;12.90;99.90;;;13.52;100.00;97832.16;5187707;28;20212;-66
2022/12/31 02:20:15;;;;;;;2.80;1.67;;;12.80;99.90;;;13.52;100.00;97828.72;5187220;28;20705;-65
2022/12/31 02:23:18;;;;;;;1.80;1.70;;;12.80;99.90;;;13.33;100.00;97828.69;5186902;28;20241;-66
2022/12/31 02:26:19;;;;;;;1.60;1.50;;;12.70;99.90;;;13.37;100.00;97828.91;5189177;28;20296;-66
2022/12/31 02:29:31;;;;;;;1.60;1.50;;;12.70;99.90;;;13.43;100.00;97841.13;5186273;28;20352;-71
2022/12/31 02:32:11;;;;;;;1.60;1.50;;;12.70;99.90;;;13.33;100.00;97839.81;5184380;28;20979;-66
2022/12/31 02:34:51;;;;;;;2.13;1.50;;;12.60;99.90;;;13.36;100.00;97834.81;5187269;28;20681;-66
2022/12/31 02:37:27;;;;;;;1.63;1.52;;;12.70;99.90;;;13.19;100.00;97835.69;5188055;28;20679;-66
2022/12/31 02:40:01;;;;;;;1.40;1.40;;;12.50;99.90;;;13.21;100.00;97839.22;5187792;28;20235;-66
2022/12/31 02:42:34;;;;;;;1.90;1.75;;;12.50;99.90;;;13.22;100.00;97833.28;5188010;28;20202;-65
2022/12/31 02:45:10;;;;;;;1.77;1.55;;;12.50;99.90;;;13.26;100.00;97837.78;5186175;28;20212;-65
2022/12/31 02:48:01;;;;;;;1.70;1.60;;;12.50;99.90;;;13.06;100.00;97824.88;5188556;28;20268;-66
2022/12/31 02:50:54;;;;;;;1.85;1.73;;;12.40;99.90;;;13.17;100.00;97821.94;5188878;28;20313;-67
2022/12/31 02:53:59;;;;;;;2.35;1.58;;;12.40;99.90;;;12.97;100.00;97829.59;5187146;28;20595;-66
2022/12/31 02:56:39;;;;;;;1.92;1.83;;;12.40;99.90;;;13.01;100.00;97821.22;5187869;28;20697;-65
2022/12/31 03:02:18;;;;;;;1.60;1.50;;;12.30;99.90;;;12.99;100.00;97830.53;5185851;28;20460;-66
2022/12/31 03:04:56;;;;;;;1.63;1.63;;;12.30;99.90;;;13.23;100.00;97822.22;5185859;28;20759;-65
2022/12/31 03:07:30;;;;;;;2.08;1.98;;;12.40;99.90;;;13.21;100.00;97804.16;5187606;28;20219;-66
2022/12/31 03:10:04;;;;;;;2.15;2.00;;;12.50;99.90;;;13.33;100.00;97811.59;5184827;28;20225;-66
2022/12/31 03:12:45;;;;;;;1.58;1.50;;;12.70;99.90;;;13.36;100.00;97814.28;5185008;28;20202;-65
2022/12/31 03:15:22;;;;;;;1.48;1.40;;;12.60;99.90;;;13.34;100.00;97817.63;5184819;28;20222;-66
2022/12/31 03:17:59;;;;;;;1.90;1.80;;;12.60;99.90;;;13.36;100.00;97816.84;5186994;28;20636;-66
2022/12/31 03:23:30;;;;;;;3.00;1.90;;;12.60;99.90;;;13.45;99.68;97814.72;5191605;28;20297;-67
2022/12/31 03:26:08;;;;;;;1.90;1.80;;;12.70;99.90;;;13.52;99.05;97818.44;5198330;28;20197;-66
2022/12/31 03:28:46;;;;;;;1.98;1.88;;;12.70;99.90;;;13.47;99.52;97818.22;5201292;28;20229;-66
2022/12/31 03:31:19;;;;;;;1.80;1.80;;;12.70;99.90;;;13.48;99.09;97829.41;5199817;28;20206;-66
2022/12/31 03:33:53;;;;;;;2.47;1.60;;;12.80;99.90;;;13.51;98.24;97815.00;5200054;28;20206;-66
2022/12/31 03:36:27;;;;;;;1.73;1.63;;;12.80;99.90;;;13.66;97.11;97819.94;5201859;28;20198;-66
2022/12/31 03:39:00;;;;;;;1.80;1.70;;;13.00;99.90;;;13.68;97.29;97809.72;5198991;28;20311;-66
2022/12/31 03:41:33;;;;;;;1.73;1.52;;;13.00;99.90;;;13.67;97.15;97807.97;5198338;28;20301;-66
2022/12/31 03:44:06;;;;;;;1.70;1.60;;;13.00;99.90;;;13.89;93.62;97817.50;5198177;28;20233;-67
2022/12/31 03:46:39;;;;;;;1.58;1.58;;;13.40;99.90;;;13.93;94.14;97815.09;5193244;28;20667;-65
2022/12/31 03:49:12;;;;;;;1.60;1.50;;;13.50;99.90;;;13.84;94.35;97830.13;5200439;28;20222;-66
2022/12/31 03:51:47;;;;;;;1.55;1.55;;;13.30;99.90;;;13.86;94.92;97830.22;5196224;28;20672;-65
2022/12/31 03:54:20;;;;;;;1.73;1.63;;;13.30;99.90;;;13.85;93.80;97831.00;5199672;28;20312;-65
2022/12/31 03:56:53;;;;;;;1.90;1.80;;;13.30;99.90;;;13.92;93.80;97833.91;5198555;28;20657;-66
2022/12/31 03:59:32;;;;;;;1.67;1.58;;;13.50;99.90;;;14.12;93.66;97836.47;5200886;28;20668;-65
2022/12/31 04:02:05;;;;;;;1.73;1.63;;;13.70;99.90;;;14.19;92.58;97830.75;5201926;28;20236;-66
2022/12/31 04:04:39;;;;;;;1.80;1.70;;;13.80;99.90;;;14.16;93.20;97826.41;5198352;28;20252;-66
2022/12/31 04:07:13;;;;;;;1.55;1.40;;;13.70;99.90;;;14.27;91.80;97826.81;5194246;28;20206;-66
2022/12/31 04:09:46;;;;;;;1.60;1.50;;;13.80;99.90;;;14.21;92.73;97844.56;5201126;28;20379;-66
2022/12/31 04:12:19;;;;;;;1.70;1.70;;;13.70;99.90;;;14.27;92.67;97831.97;5197718;28;20298;-67
2022/12/31 04:14:52;;;;;;;1.42;1.38;;;13.80;99.90;;;14.26;92.65;97831.91;5201267;28;20233;-66
2022/12/31 04:17:26;;;;;;;1.60;1.58;;;13.70;99.90;;;14.25;92.97;97833.63;5200029;28;20244;-66
2022/12/31 04:19:59;;;;;;;1.75;1.65;;;13.70;99.90;;;14.34;91.68;97844.28;5199479;28;20643;-66
2022/12/31 04:22:33;;;;;;;1.95;1.85;;;13.80;99.90;;;14.41;92.27;97841.13;5196797;28;20295;-66
2022/12/31 04:25:10;;;;;;;1.58;1.48;;;13.80;99.90;;;14.50;91.90;97844.91;5200662;28;20244;-66
2022/12/31 04:27:43;;;;;;;1.42;1.40;;;13.90;99.90;;;14.50;91.60;97840.63;5195626;28;20201;-66
2022/12/31 04:30:16;;;;;;;1.80;1.58;;;14.00;99.90;;;14.66;91.00;97851.59;5197873;28;20226;-64
2022/12/31 04:32:49;;;;;;;1.73;1.48;;;14.10;99.90;;;14.64;91.07;97854.09;5197419;28;20198;-64
2022/12/31 04:35:22;;;;;;;1.70;1.60;;;14.10;99.90;;;14.56;90.44;97850.31;5199505;28;20201;-66
2022/12/31 04:37:57;;;;;;;1.70;1.60;;;14.10;99.90;;;14.65;90.31;97858.44;5198946;28;20681;-67
2022/12/31 04:40:30;;;;;;;1.73;1.50;;;14.20;99.90;;;14.67;90.42;97861.94;5198941;28;20323;-66
2022/12/31 04:43:03;;;;;;;1.50;1.42;;;14.20;99.90;;;14.68;90.88;97858.56;5197536;28;20289;-66
2022/12/31 04:45:36;;;;;;;1.45;1.45;;;14.20;99.90;;;14.83;89.80;97866.91;5201856;28;20649;-66
2022/12/31 04:48:09;;;;;;;1.60;1.48;;;14.40;99.90;;;14.85;89.35;97869.53;5196554;28;20582;-65
2022/12/31 04:50:42;;;;;;;1.70;1.60;;;14.50;99.90;;;14.87;89.61;97861.06;5222372;22;20651;-64
2022/12/31 04:53:16;;;;;;;1.45;1.45;;;14.50;99.90;;;14.90;89.56;97865.44;5219832;28;20335;-66
2022/12/31 04:55:50;;;;;;;1.45;1.40;;;14.50;99.90;;;14.94;89.28;97858.75;5220315;28;20208;-66
2022/12/31 04:58:23;;;;;;;1.77;1.70;;;14.50;99.90;;;14.78;90.06;97868.41;5219527;28;20256;-66
2022/12/31 05:00:56;;;;;;;1.52;1.50;;;14.40;99.90;;;14.93;89.79;97870.72;5200717;28;20271;-66
2022/12/31 05:03:30;;;;;;;2.33;1.60;;;14.40;99.90;;;14.87;89.86;97873.91;5201254;28;20628;-67
2022/12/31 05:06:06;;;;;;;1.80;1.70;;;14.40;99.90;;;14.91;89.94;97876.59;5200868;28;20292;-67
2022/12/31 05:08:40;;;;;;;1.60;1.50;;;14.30;99.90;;;14.84;90.17;97881.50;5197490;28;20251;-65
2022/12/31 05:11:14;;;;;;;1.42;1.42;;;14.40;99.90;;;14.89;90.20;97880.84;5199267;28;20296;-66
2022/12/31 05:13:47;;;;;;;1.52;1.42;;;14.40;99.90;;;14.90;90.30;97887.72;5199766;28;20340;-66
2022/12/31 05:16:20;;;;;;;1.90;1.50;;;14.50;99.90;;;14.98;90.16;97883.78;5201779;28;20209;-65
2022/12/31 05:18:53;;;;;;;1.75;1.40;;;14.60;99.90;;;15.05;89.62;97883.19;5200911;28;20230;-66
2022/12/31 05:21:26;;;;;;;2.15;1.33;;;14.70;99.90;;;15.01;90.65;97881.31;5195361;28;20237;-65
2022/12/31 05:24:01;;;;;;;1.45;1.40;;;14.60;99.90;;;15.02;90.43;97885.63;5199925;28;20676;-66
2022/12/31 05:26:34;;;;;;;1.35;1.23;;;14.60;99.90;;;15.06;90.60;97884.97;5200402;28;20210;-67
2022/12/31 05:29:07;;;;;;;1.55;1.55;;;14.60;99.90;;;15.09;90.36;97890.22;5196321;28;20312;-66
2022/12/31 05:31:40;;;;;;;1.45;1.45;;;14.80;99.90;;;15.13;90.32;97893.81;5192429;28;20673;-67
2022/12/31 05:34:13;;;;;;;1.08;1.08;;;14.80;99.90;;;15.15;90.33;97910.19;5198888;28;20237;-66
2022/12/31 05:36:46;;;;;;;1.40;1.30;;;14.80;99.90;;;15.18;90.07;97906.03;5199052;28;20212;-66
2022/12/31 05:39:20;;;;;;;1.27;1.27;;;14.90;99.90;;;15.19;90.55;97886.31;5200165;28;20221;-65
2022/12/31 05:41:53;;;;;;;1.50;1.40;;;14.90;99.90;;;15.17;90.80;97898.28;5199504;28;21046;-66
2022/12/31 05:44:26;;;;;;;1.30;1.30;;;14.80;99.90;;;15.18;90.68;97885.44;5202227;28;20212;-66
2022/12/31 05:46:59;;;;;;;1.38;1.38;;;14.80;99.90;;;15.12;91.15;97899.78;5204081;28;20305;-65
2022/12/31 05:49:32;;;;;;;1.35;1.33;;;14.90;99.90;;;15.13;91.52;97910.13;5199840;28;20265;-65
2022/12/31 05:52:06;;;;;;;1.40;1.40;;;14.90;99.90;;;15.17;91.78;97911.16;5197932;28;20290;-66
2022/12/31 05:54:40;;;;;;;1.40;1.40;;;14.80;99.90;;;15.15;92.22;97911.06;5200091;28;20617;-65
2022/12/31 05:57:14;;;;;;;1.60;1.50;;;14.70;99.90;;;15.09;92.74;97910.84;5191149;28;20215;-67
2022/12/31 05:59:47;;;;;;;1.50;1.40;;;14.70;99.90;;;15.17;92.37;97916.28;5193943;28;20234;-67
2022/12/31 06:02:21;;;;;;;1.30;1.30;;;14.70;99.90;;;15.26;92.43;97908.94;5186767;28;21029;-66
2022/12/31 06:04:54;;;;;;;1.27;1.17;;;14.70;99.90;;;15.19;92.37;97917.22;5183636;28;20570;-67
2022/12/31 06:07:27;;;;;;;1.35;1.35;;;14.80;99.90;;;15.17;92.96;97914.59;5194582;28;20256;-64
2022/12/31 06:10:02;;;;;;;1.40;1.40;;;14.70;99.90;;;15.16;92.82;97917.97;5185868;28;20221;-66
2022/12/31 06:12:35;;;;;;;1.20;1.20;;;14.70;99.90;;;15.21;93.38;97920.75;5192873;28;20300;-67
2022/12/31 06:15:10;;;;;;;1.10;1.10;;;14.60;99.90;;;15.36;91.97;97921.31;5204142;28;20225;-66
2022/12/31 06:17:43;;;;;;;1.40;1.30;;;14.80;99.90;;;15.27;92.11;97921.84;5198883;28;20595;-66
2022/12/31 06:20:16;;;;;;;1.48;1.38;;;14.80;99.90;;;15.27;92.55;97932.16;5188745;28;20257;-64
2022/12/31 06:22:49;;;;;;;1.55;1.45;;;14.70;99.90;;;15.21;92.45;97939.63;5188919;28;20236;-65
2022/12/31 06:25:23;;;;;;;1.15;1.15;;;14.60;99.90;;;15.30;91.83;97937.41;5184969;28;20319;-67
2022/12/31 06:27:57;;;;;;;1.30;1.20;;;14.60;99.90;;;15.34;91.21;97951.31;5186990;28;20775;-66
2022/12/31 06:30:30;;;;;;;3.03;2.83;;;14.80;99.90;;;15.30;91.76;97958.03;5188845;28;20592;-67
2022/12/31 06:33:03;;;;;;;3.10;2.90;;;14.70;99.90;;;15.31;91.55;97969.22;5186539;28;20289;-65
2022/12/31 06:35:36;;;;;;;2.70;2.50;;;14.70;99.90;;;15.44;89.69;97957.69;5184969;28;20682;-66
2022/12/31 06:38:09;;;;;;;5.22;4.78;;;14.80;99.90;;;15.39;90.73;97959.22;5190594;28;20279;-65
2022/12/31 06:40:43;;;;;;;4.05;3.70;;;14.70;99.90;;;15.38;90.81;97966.06;5184257;28;20299;-66
2022/12/31 06:43:17;;;;;;;2.10;2.00;;;14.70;99.90;;;15.37;90.47;97976.31;5193390;28;20248;-65
2022/12/31 06:45:50;;;;;;;1.60;1.50;;;14.80;99.90;;;15.42;90.29;97977.34;5200824;28;20232;-67
2022/12/31 06:48:23;;;;;;;1.60;1.50;;;14.80;99.90;;;15.30;91.92;97978.63;5203564;28;20637;-66
2022/12/31 06:50:56;;;;;;;1.70;1.60;;;14.60;99.90;;;15.17;92.83;97976.38;5203718;28;20233;-66
2022/12/31 06:53:29;;;;;;;1.60;1.50;;;14.50;99.90;;;15.08;93.44;97976.91;5198159;28;20225;-65
2022/12/31 06:56:07;;;;;;;1.38;1.38;;;14.40;99.90;;;15.08;94.08;97970.88;5199282;28;20279;-66
2022/12/31 06:58:42;;;;;;;1.58;1.42;;;14.40;99.90;;;14.98;94.88;97986.75;5203502;28;20568;-65
2022/12/31 07:01:47;;;;;;;4.43;4.03;;;14.20;99.90;;;15.01;93.77;97989.44;5201984;28;20230;-66
2022/12/31 07:04:51;;;;;;;3.05;2.08;;;14.20;99.90;;;14.91;95.09;97988.19;5201499;28;20202;-67
2022/12/31 07:07:31;;;;;;;1.85;1.75;;;14.10;99.90;;;14.88;95.25;97985.50;5198797;28;20198;-65
2022/12/31 07:10:19;;;;;;;1.42;1.33;;;14.10;99.90;;;14.84;95.16;97979.31;5200540;28;20264;-65
2022/12/31 07:13:22;;;;;;;1.70;1.60;;;14.10;99.90;;;14.80;95.52;97979.13;5196521;28;20218;-65
2022/12/31 07:16:25;;;;;;;1.50;1.50;;;14.00;99.90;;;14.70;96.92;97983.00;5203174;28;20202;-65
2022/12/31 07:19:13;;;;;;;2.20;2.10;;;13.90;99.90;;;14.62;98.30;97966.34;5199846;28;20261;-66
2022/12/31 07:21:48;;;;;;;1.77;1.70;;;13.80;99.90;;;14.57;98.97;97975.56;5190231;28;20276;-65
2022/12/31 07:24:22;;;;;;;1.70;1.60;;;13.80;99.90;;;14.47;98.81;97978.53;5200141;28;20650;-64
2022/12/31 07:27:18;;;;;;;1.90;1.80;;;13.70;99.90;;;14.40;98.89;97985.97;5199972;28;20230;-65
2022/12/31 07:30:03;;;;;;;1.65;1.63;;;13.70;99.90;;;14.38;99.89;97986.72;5198475;28;20276;-65
2022/12/31 07:33:02;;;;;;;1.88;1.77;;;13.70;99.90;;;14.38;99.62;97986.72;5195038;28;20197;-66
2022/12/31 07:35:47;;;;;;;1.70;1.60;;;13.70;99.90;;;14.33;100.00;97983.06;5200843;28;20507;-66
2022/12/31 07:38:30;;;;;;;1.80;1.70;;;13.60;99.90;;;14.37;100.00;97990.97;5195575;28;20731;-65
2022/12/31 07:41:13;;;;;;;2.08;1.88;;;13.60;99.90;;;14.30;100.00;97991.50;5198995;28;20284;-67
2022/12/31 07:43:58;;;;;;;1.67;1.60;;;13.50;99.90;;;14.28;100.00;97985.44;5196449;28;20202;-66
2022/12/31 07:46:40;;;;;;;1.95;1.88;;;13.60;99.90;;;14.28;100.00;97992.25;5200222;28;20206;-66
2022/12/31 07:49:15;;;;;;;1.90;1.70;;;13.50;99.90;;;14.25;100.00;97993.00;5194590;28;20226;-67
2022/12/31 07:51:48;;;;;;;3.28;2.97;;;13.50;99.90;;;14.24;100.00;97991.22;5197118;28;20240;-67
2022/12/31 07:54:22;;;;;;;2.53;2.30;;;13.40;99.90;;;14.40;98.70;97998.81;5196064;28;20202;-67
2022/12/31 07:56:55;;;;;;;2.10;2.00;;;13.60;99.90;;;14.35;99.86;97999.44;5197486;28;20588;-67
2022/12/31 07:59:48;;;;;;;2.03;1.88;;;13.60;99.90;;;14.34;100.00;98003.69;5200933;28;20225;-67
2022/12/31 08:02:39;;;;;;;1.73;1.65;;;13.60;99.90;;;14.34;100.00;98007.97;5203480;28;20296;-67
2022/12/31 08:05:22;;;;;;;2.10;1.90;;;13.60;99.90;;;14.37;100.00;98014.13;5189685;28;20197;-66
2022/12/31 08:08:07;;;;;;;6.40;5.82;;;13.60;99.90;;;14.36;100.00;98029.47;5200113;28;20230;-66
2022/12/31 08:10:51;;;;;;;4.05;3.75;;;13.50;99.90;;;14.37;100.00;98019.25;5200204;28;20221;-65
2022/12/31 08:13:25;;;;;;;3.90;3.50;;;13.60;99.90;;;14.41;100.00;98023.72;5198264;28;20336;-67
2022/12/31 08:15:59;;;;;;;3.63;3.33;;;13.60;99.90;;;14.41;100.00;98031.44;5194952;28;20560;-65
2022/12/31 08:18:34;;;;;;;2.78;2.58;;;13.60;99.90;;;14.40;100.00;98032.25;5200835;28;20206;-66
2022/12/31 08:21:22;;;;;;;2.70;2.50;;;13.60;99.90;;;14.41;99.84;98043.41;5201810;28;20265;-66
2022/12/31 08:24:10;;;;;;;2.60;2.40;;;13.60;99.90;;;14.42;100.00;98037.44;5197869;28;20666;-66
2022/12/31 08:26:56;;;;;;;3.30;3.10;;;13.60;99.90;;;14.40;98.71;98041.66;5197660;28;20636;-66
2022/12/31 08:29:37;;;;;;;2.63;2.42;;;13.60;99.90;;;14.53;98.45;98043.13;5199190;28;20257;-66
2022/12/31 08:32:18;;;;;;;2.40;2.20;;;13.70;99.90;;;14.62;96.66;98043.50;5200686;28;20609;-66
2022/12/31 08:35:02;;;;;;;3.05;2.75;;;13.90;99.90;;;14.83;95.37;98041.91;5197841;28;20229;-66
2022/12/31 08:37:41;;;;;;;2.58;2.38;;;14.00;99.90;;;15.05;94.66;98029.94;5197393;28;20194;-66
2022/12/31 08:40:24;;;;;;;2.70;1.90;;;14.30;99.90;;;15.60;89.27;98027.06;5195116;28;20637;-66
2022/12/31 08:43:18;;;;;;;2.88;1.90;;;14.90;99.90;;;15.91;87.09;98036.91;5198769;28;20673;-65
2022/12/31 08:45:53;;;;;;;1.90;1.80;;;15.40;99.90;;;16.04;86.85;98025.38;5197517;28;20289;-65
2022/12/31 08:48:33;;;;;;;2.20;2.10;;;15.60;99.90;;;16.33;83.62;98025.56;5197332;28;20206;-66
2022/12/31 08:51:17;;;;;;;2.00;1.80;;;15.90;99.90;;;16.61;81.47;98020.59;5197589;28;20304;-65
2022/12/31 08:53:52;;;;;;;1.58;1.50;;;16.20;99.90;;;16.66;80.84;98015.63;5189314;28;20288;-66
2022/12/31 08:56:31;;;;;;;2.85;2.17;;;16.20;99.90;;;16.71;80.06;98026.09;5199239;28;20205;-66
2022/12/31 08:59:21;;;;;;;4.30;3.95;;;16.20;99.90;;;16.76;79.27;98032.28;5197688;28;20217;-65
2022/12/31 09:02:23;;;;;;;12.20;11.20;;;16.10;99.90;;;16.78;78.24;98033.28;5196430;28;20784;-66
2022/12/31 09:05:14;;;;;;;13.75;12.43;;;16.30;99.90;;;16.60;79.59;98039.50;5196097;28;20237;-65
2022/12/31 09:08:02;;;;;;;4.35;3.95;;;16.10;99.90;;;16.61;79.14;98043.81;5194486;28;20743;-66
2022/12/31 09:10:44;;;;;;;3.10;2.90;;;16.00;99.90;;;16.52;79.67;98053.81;5196821;28;20221;-66
2022/12/31 09:13:25;;;;;;;2.42;2.25;;;15.90;99.90;;;16.62;78.50;98058.47;5196348;28;20359;-65
2022/12/31 09:16:09;;;;;;;1.58;1.58;;;16.00;99.90;;;16.58;79.02;98060.91;5200892;28;20300;-66
2022/12/31 09:18:43;;;;;;;1.83;1.73;;;15.90;99.90;;;16.50;80.70;98063.19;5198768;28;20700;-65
2022/12/31 09:21:17;;;;;;;4.25;3.70;;;15.80;99.90;;;16.41;79.96;98070.59;5197653;28;20655;-65
2022/12/31 09:23:52;;;;;;;3.20;2.70;;;15.80;99.90;;;16.47;79.48;98068.25;5201104;28;20209;-65
2022/12/31 09:26:48;;;;;;;4.32;3.92;;;15.80;99.90;;;16.55;78.74;98061.69;5203078;28;20249;-66
2022/12/31 09:29:40;;;;;;;3.80;2.40;;;15.80;99.90;;;16.76;78.23;98063.28;5199048;28;20328;-66
2022/12/31 09:32:25;;;;;;;5.15;4.10;;;16.00;99.90;;;16.63;78.60;98078.31;5194225;28;20800;-66
2022/12/31 09:35:10;;;;;;;5.97;4.65;;;16.00;99.90;;;16.69;78.59;98072.50;5192324;28;20746;-65
2022/12/31 09:37:47;;;;;;;4.35;3.30;;;16.00;99.90;;;16.78;77.06;98072.00;5200645;28;20213;-65
2022/12/31 09:40:48;;;;;;;2.78;2.33;;;16.20;99.90;;;16.99;76.07;98072.75;5197989;28;20754;-65
2022/12/31 09:44:05;;;;;;;3.35;2.70;;;16.50;99.90;;;17.16;74.87;98075.03;5200077;28;21576;-66
2022/12/31 09:47:30;;;;;;;2.05;1.85;;;16.70;99.90;;;17.13;76.85;98074.94;5195447;28;20198;-65
2022/12/31 09:50:26;;;;;;;1.75;1.65;;;16.70;99.90;;;17.39;73.46;98073.25;5200337;28;20906;-66
2022/12/31 09:53:25;;;;;;;2.15;2.05;;;16.90;99.90;;;17.50;74.78;98062.44;5198173;28;20230;-65
2022/12/31 09:56:08;;;;;;;3.13;2.83;;;17.10;99.90;;;17.61;73.69;98075.72;5199512;28;20233;-65
2022/12/31 09:58:51;;;;;;;2.35;1.80;;;17.10;99.90;;;17.70;73.13;98070.84;5197091;28;20267;-65
2022/12/31 10:01:44;;;;;;;2.47;2.20;;;17.20;99.90;;;17.75;71.70;98078.75;5194569;28;20209;-66
2022/12/31 10:04:52;;;;;;;2.45;2.00;;;17.30;99.90;;;17.80;71.16;98077.25;5191935;28;20206;-65
2022/12/31 10:07:40;;;;;;;2.05;1.63;;;17.30;99.90;;;17.75;71.79;98071.00;5201289;28;20202;-66
2022/12/31 10:10:23;;;;;;;2.03;1.92;;;17.20;99.90;;;17.89;70.30;98069.75;5190859;28;20718;-65
2022/12/31 10:13:22;;;;;;;2.20;2.10;;;17.40;99.90;;;17.82;70.90;98077.28;5194406;28;20204;-65
2022/12/31 10:16:38;;;;;;;3.05;2.83;;;17.50;99.90;;;17.96;70.72;98082.03;5200718;28;20198;-66
2022/12/31 10:19:55;;;;;;;1.67;1.60;;;17.70;99.90;;;18.08;69.56;98072.91;5201460;28;20222;-66
2022/12/31 10:23:16;;;;;;;2.03;1.83;;;17.80;99.90;;;18.25;68.78;98071.72;5197229;28;20253;-65
2022/12/31 10:26:15;;;;;;;1.70;1.60;;;17.90;99.90;;;18.27;69.06;98070.06;5197782;28;20206;-65
2022/12/31 10:28:55;;;;;;;1.60;1.50;;;17.90;99.90;;;18.35;69.36;98066.00;5196023;28;20205;-65
2022/12/31 10:31:39;;;;;;;1.48;1.33;;;17.90;99.90;;;18.42;68.01;98073.09;5202563;28;20201;-66
2022/12/31 10:34:16;;;;;;;1.50;1.40;;;17.90;99.90;;;18.51;66.57;98080.25;5199482;28;20304;-66
2022/12/31 10:36:55;;;;;;;2.08;1.67;;;18.10;99.90;;;18.51;67.41;98069.03;5201718;28;20201;-66
2022/12/31 10:39:45;;;;;;;1.48;1.45;;;18.10;99.90;;;18.57;65.93;98080.47;5194431;28;20257;-66
2022/12/31 10:42:48;;;;;;;1.50;1.40;;;18.10;99.90;;;18.53;65.83;98078.59;5197213;28;20316;-66
2022/12/31 10:46:20;;;;;;;1.40;1.40;;;18.10;99.90;;;18.66;65.55;98074.66;5197441;28;20226;-65
2022/12/31 10:50:04;;;;;;;1.88;1.70;;;18.20;99.90;;;18.73;65.08;98073.13;5136409;28;20362;-66
2022/12/31 10:53:32;;;;;;;1.60;1.50;;;18.30;99.90;;;18.67;65.59;98073.81;5162191;28;20201;-66
2022/12/31 10:57:05;;;;;;;1.67;1.58;;;18.20;99.90;;;18.67;66.58;98079.00;5198893;28;20328;-66
2022/12/31 11:00:11;;;;;;;1.70;1.60;;;18.10;99.90;;;18.79;63.89;98071.59;5199228;28;20225;-66
2022/12/31 11:03:41;;;;;;;1.92;1.48;;;18.30;99.90;;;18.98;63.40;98062.63;5199536;28;20309;-66
2022/12/31 11:06:57;;;;;;;1.50;1.40;;;18.60;99.90;;;18.87;63.36;98061.47;5199728;28;20264;-66
2022/12/31 11:10:01;;;;;;;1.65;1.55;;;18.30;99.90;;;18.92;63.30;98057.28;5199607;28;20708;-65
2022/12/31 11:13:11;;;;;;;1.60;1.50;;;18.40;99.90;;;18.82;63.96;98045.78;5195457;28;20191;-66
2022/12/31 11:16:07;;;;;;;1.40;1.30;;;18.40;99.90;;;18.87;63.84;98058.88;5197710;28;20214;-65
2022/12/31 11:18:51;;;;;;;1.27;1.20;;;18.30;99.90;;;18.89;63.40;98052.91;5190161;28;20255;-66
2022/12/31 11:21:44;;;;;;;1.52;1.42;;;18.30;99.90;;;18.85;63.94;98052.75;5198457;28;20244;-65
2022/12/31 11:24:36;;;;;;;1.33;1.25;;;18.30;99.90;;;18.79;64.53;98040.53;5197605;28;20225;-65